createdAt,value
2018-02-19T00:00:36.499Z,2.60
2018-02-19T00:03:38.111Z,2.60
2018-02-19T00:06:39.464Z,2.50
2018-02-19T00:09:40.820Z,2.50
2018-02-19T00:12:42.210Z,2.50
2018-02-19T00:15:43.629Z,2.60
2018-02-19T00:18:45.694Z,2.50
2018-02-19T00:21:47.024Z,2.50
2018-02-19T00:24:48.362Z,2.60
2018-02-19T00:27:51.041Z,2.60
2018-02-19T00:30:52.504Z,2.60
2018-02-19T00:33:54.597Z,2.70
2018-02-19T00:36:56.761Z,2.60
2018-02-19T00:39:58.526Z,2.20
2018-02-19T00:42:59.890Z,2.50
2018-02-19T00:46:02.626Z,2.60
2018-02-19T00:49:05.329Z,2.60
2018-02-19T00:52:07.718Z,2.60
2018-02-19T00:55:10.841Z,2.60
2018-02-19T00:58:12.940Z,2.60
2018-02-19T01:01:34.862Z,2.70
2018-02-19T01:04:40.175Z,2.70
2018-02-19T01:07:42.271Z,2.60
2018-02-19T01:10:44.623Z,2.40
2018-02-19T01:13:47.407Z,2.70
2018-02-19T01:16:52.888Z,2.70
2018-02-19T01:20:09.473Z,2.70
2018-02-19T01:23:11.048Z,2.70
2018-02-19T01:26:12.358Z,2.70
2018-02-19T01:29:13.691Z,2.70
2018-02-19T01:32:15.009Z,2.80
2018-02-19T01:35:16.350Z,2.60
2018-02-19T01:38:17.661Z,2.40
2018-02-19T01:41:18.971Z,2.60
2018-02-19T01:44:20.287Z,2.70
2018-02-19T01:47:21.635Z,2.60
2018-02-19T01:50:22.982Z,2.60
2018-02-19T01:53:24.318Z,2.60
2018-02-19T01:56:25.675Z,2.60
2018-02-19T01:59:27.028Z,2.60
2018-02-19T02:02:28.398Z,2.70
2018-02-19T02:05:29.723Z,2.80
2018-02-19T02:08:31.798Z,2.80
2018-02-19T02:11:33.129Z,2.70
2018-02-19T02:14:34.439Z,2.70
2018-02-19T02:17:35.792Z,2.60
2018-02-19T02:20:37.199Z,2.50
2018-02-19T02:23:38.506Z,2.60
2018-02-19T02:26:46.836Z,2.70
2018-02-19T02:29:48.186Z,2.60
2018-02-19T02:32:49.499Z,2.70
2018-02-19T02:35:50.846Z,2.90
2018-02-19T02:38:52.149Z,2.80
2018-02-19T02:41:53.499Z,2.80
2018-02-19T02:44:54.795Z,2.70
2018-02-19T02:47:56.140Z,2.60
2018-02-19T02:50:58.202Z,2.40
2018-02-19T02:53:59.516Z,2.40
2018-02-19T02:57:01.601Z,2.50
2018-02-19T03:00:03.892Z,2.50
2018-02-19T03:03:05.194Z,2.50
2018-02-19T03:06:08.302Z,2.40
2018-02-19T03:09:09.592Z,2.40
2018-02-19T03:12:11.655Z,2.30
2018-02-19T03:15:12.990Z,2.30
2018-02-19T03:18:14.311Z,2.40
2018-02-19T03:21:15.650Z,2.50
2018-02-19T03:24:17.006Z,2.50
2018-02-19T03:27:19.070Z,2.60
2018-02-19T03:30:20.492Z,2.60
2018-02-19T03:33:22.532Z,2.70
2018-02-19T03:36:23.852Z,2.50
2018-02-19T03:39:25.290Z,2.70
2018-02-19T03:42:26.620Z,2.80
2018-02-19T03:45:28.712Z,2.70
2018-02-19T03:48:30.060Z,2.60
2018-02-19T03:51:31.595Z,2.80
2018-02-19T03:54:33.663Z,2.80
2018-02-19T03:57:36.117Z,2.80
2018-02-19T04:00:37.629Z,2.90
2018-02-19T04:03:38.970Z,3.10
2018-02-19T04:06:41.064Z,2.80
2018-02-19T04:09:43.132Z,2.70
2018-02-19T04:12:48.291Z,2.80
2018-02-19T04:15:49.650Z,2.70
2018-02-19T04:18:50.957Z,2.80
2018-02-19T04:21:52.279Z,2.60
2018-02-19T04:24:54.705Z,2.60
2018-02-19T04:27:56.027Z,2.60
2018-02-19T04:30:57.370Z,2.60
2018-02-19T04:33:58.702Z,2.60
2018-02-19T04:37:00.791Z,2.50
2018-02-19T04:40:02.145Z,2.50
2018-02-19T04:43:17.415Z,2.20
2018-02-19T04:49:53.412Z,2.50
2018-02-19T04:52:55.178Z,2.60
2018-02-19T04:55:56.500Z,2.50
2018-02-19T04:58:57.815Z,2.50
2018-02-19T05:01:59.124Z,2.70
2018-02-19T05:05:00.448Z,2.70
2018-02-19T05:08:02.522Z,2.70
2018-02-19T05:11:03.843Z,2.90
2018-02-19T05:14:05.876Z,2.60
2018-02-19T05:17:07.223Z,2.50
2018-02-19T05:20:09.307Z,2.50
2018-02-19T05:23:11.407Z,2.50
2018-02-19T05:26:13.459Z,2.40
2018-02-19T05:29:14.769Z,2.40
2018-02-19T05:32:16.084Z,2.40
2018-02-19T05:35:17.431Z,2.40
2018-02-19T05:38:18.754Z,2.30
2018-02-19T05:41:20.140Z,2.40
2018-02-19T05:44:21.549Z,2.30
2018-02-19T05:47:22.877Z,2.40
2018-02-19T05:50:24.211Z,2.40
2018-02-19T05:53:27.030Z,2.30
2018-02-19T05:56:28.359Z,2.30
2018-02-19T05:59:29.640Z,2.20
2018-02-19T06:02:30.973Z,2.30
2018-02-19T06:05:32.324Z,2.00
2018-02-19T06:08:33.651Z,2.00
2018-02-19T06:11:35.704Z,2.20
2018-02-19T06:14:37.036Z,1.90
2018-02-19T06:17:39.159Z,2.20
2018-02-19T06:20:40.494Z,2.10
2018-02-19T06:23:41.796Z,2.30
2018-02-19T06:26:43.869Z,2.50
2018-02-19T06:29:45.224Z,2.50
2018-02-19T06:32:46.551Z,2.60
2018-02-19T06:35:48.655Z,2.30
2018-02-19T06:38:50.732Z,2.30
2018-02-19T06:41:52.199Z,2.30
2018-02-19T06:44:53.528Z,2.30
2018-02-19T06:47:54.872Z,2.30
2018-02-19T06:50:56.226Z,2.40
2018-02-19T06:53:57.583Z,2.70
2018-02-19T06:56:59.177Z,2.60
2018-02-19T07:00:00.519Z,2.60
2018-02-19T07:03:02.654Z,2.60
2018-02-19T07:06:03.992Z,2.30
2018-02-19T07:09:06.036Z,2.70
2018-02-19T07:12:07.382Z,2.70
2018-02-19T07:15:09.454Z,2.60
2018-02-19T07:18:10.777Z,2.60
2018-02-19T07:21:12.145Z,2.60
2018-02-19T07:24:14.203Z,2.50
2018-02-19T07:27:15.556Z,2.40
2018-02-19T07:30:16.876Z,2.30
2018-02-19T07:33:18.307Z,2.50
2018-02-19T07:36:19.766Z,2.30
2018-02-19T07:39:21.130Z,2.40
2018-02-19T07:42:22.484Z,2.70
2018-02-19T07:45:23.935Z,2.80
2018-02-19T07:48:25.266Z,2.50
2018-02-19T07:51:26.603Z,2.50
2018-02-19T07:54:27.917Z,2.50
2018-02-19T07:57:29.251Z,2.50
2018-02-19T08:00:30.600Z,2.30
2018-02-19T08:03:32.640Z,2.50
2018-02-19T08:06:33.995Z,2.50
2018-02-19T08:09:35.301Z,2.30
2018-02-19T08:12:36.630Z,2.20
2018-02-19T08:15:38.009Z,2.50
2018-02-19T08:18:39.515Z,2.40
2018-02-19T08:21:41.587Z,2.40
2018-02-19T08:24:42.931Z,2.40
2018-02-19T08:27:44.266Z,2.20
2018-02-19T08:30:46.310Z,2.40
2018-02-19T08:33:47.624Z,2.30
2018-02-19T08:36:49.029Z,2.40
2018-02-19T08:39:51.139Z,2.50
2018-02-19T08:42:52.450Z,2.50
2018-02-19T08:45:53.825Z,2.50
2018-02-19T08:52:03.288Z,2.70
2018-02-19T08:55:05.442Z,2.70
2018-02-19T08:58:07.282Z,2.40
2018-02-19T09:01:08.700Z,2.70
2018-02-19T09:04:10.049Z,2.80
2018-02-19T09:07:12.193Z,3.00
2018-02-19T09:10:13.561Z,3.00
2018-02-19T09:13:15.321Z,3.00
2018-02-19T09:16:16.995Z,3.00
2018-02-19T09:19:19.154Z,3.00
2018-02-19T09:22:20.461Z,3.10
2018-02-19T09:25:21.827Z,2.90
2018-02-19T09:28:23.948Z,3.10
2018-02-19T09:31:25.234Z,3.00
2018-02-19T09:34:27.316Z,3.20
2018-02-19T09:37:28.785Z,3.10
2018-02-19T09:40:30.193Z,3.10
2018-02-19T09:43:31.652Z,3.80
2018-02-19T09:46:33.057Z,3.50
2018-02-19T09:49:34.354Z,3.30
2018-02-19T09:52:36.601Z,3.80
2018-02-19T09:55:38.075Z,3.70
2018-02-19T09:58:39.467Z,3.90
2018-02-19T10:01:40.889Z,4.20
2018-02-19T10:04:42.374Z,4.30
2018-02-19T10:07:44.498Z,4.20
2018-02-19T10:10:45.913Z,4.20
2018-02-19T10:13:47.302Z,4.20
2018-02-19T10:16:48.688Z,4.40
2018-02-19T10:19:50.109Z,4.00
2018-02-19T10:22:52.261Z,4.20
2018-02-19T10:25:53.670Z,4.30
2018-02-19T10:28:55.786Z,4.30
2018-02-19T10:31:57.906Z,4.50
2018-02-19T10:34:59.249Z,4.70
2018-02-19T10:38:00.598Z,4.70
2018-02-19T10:41:02.031Z,4.70
2018-02-19T10:47:45.770Z,4.60
2018-02-19T10:50:47.598Z,3.90
2018-02-19T10:53:49.400Z,4.40
2018-02-19T10:56:50.958Z,4.50
2018-02-19T10:59:52.401Z,13.40
2018-02-19T11:02:53.780Z,14.40
2018-02-19T11:05:55.970Z,9.60
2018-02-19T11:08:57.318Z,9.50
2018-02-19T11:11:58.689Z,7.80
2018-02-19T11:15:00.079Z,6.80
2018-02-19T11:18:01.502Z,6.30
2018-02-19T11:21:02.889Z,5.80
2018-02-19T11:24:04.269Z,5.40
2018-02-19T11:27:05.738Z,5.60
2018-02-19T11:30:07.150Z,5.40
2018-02-19T11:33:08.499Z,5.70
2018-02-19T11:36:09.882Z,5.70
2018-02-19T11:39:11.228Z,5.50
2018-02-19T11:42:12.567Z,5.40
2018-02-19T11:45:14.602Z,5.50
2018-02-19T11:48:15.952Z,5.30
2018-02-19T11:51:18.019Z,5.10
2018-02-19T11:54:19.346Z,4.80
2018-02-19T11:57:20.681Z,5.10
2018-02-19T12:00:21.987Z,5.30
2018-02-19T12:03:24.057Z,5.70
2018-02-19T12:06:25.386Z,5.60
2018-02-19T12:09:26.739Z,5.80
2018-02-19T12:12:28.819Z,5.90
2018-02-19T12:15:30.630Z,5.90
2018-02-19T12:18:32.682Z,5.80
2018-02-19T12:21:34.795Z,5.80
2018-02-19T12:24:36.097Z,5.80
2018-02-19T12:27:37.423Z,6.10
2018-02-19T12:30:38.754Z,6.10
2018-02-19T12:33:40.830Z,6.00
2018-02-19T12:36:42.190Z,6.00
2018-02-19T12:39:43.544Z,6.10
2018-02-19T12:42:44.882Z,6.00
2018-02-19T12:45:46.200Z,6.10
2018-02-19T12:48:47.578Z,5.90
2018-02-19T12:51:48.973Z,5.80
2018-02-19T12:54:50.324Z,5.80
2018-02-19T12:57:52.442Z,6.20
2018-02-19T13:00:53.790Z,6.10
2018-02-19T13:03:55.131Z,6.10
2018-02-19T13:06:56.533Z,6.30
2018-02-19T13:09:57.859Z,6.30
2018-02-19T13:12:59.205Z,6.50
2018-02-19T13:16:00.544Z,6.50
2018-02-19T13:19:01.884Z,6.60
2018-02-19T13:22:04.018Z,6.40
2018-02-19T13:25:05.324Z,6.40
2018-02-19T13:28:06.651Z,6.50
2018-02-19T13:31:08.743Z,7.00
2018-02-19T13:34:10.787Z,6.90
2018-02-19T13:37:12.140Z,6.80
2018-02-19T13:40:13.505Z,6.60
2018-02-19T13:43:15.622Z,6.50
2018-02-19T13:46:16.963Z,6.50
2018-02-19T13:49:18.278Z,6.40
2018-02-19T13:52:19.633Z,6.20
2018-02-19T13:55:20.926Z,6.20
2018-02-19T13:58:23.006Z,6.00
2018-02-19T14:01:24.320Z,6.10
2018-02-19T14:04:25.671Z,6.10
2018-02-19T14:07:27.022Z,5.90
2018-02-19T14:10:28.371Z,5.90
2018-02-19T14:13:29.739Z,5.90
2018-02-19T14:16:31.067Z,5.80
2018-02-19T14:19:32.399Z,5.50
2018-02-19T14:22:33.771Z,5.70
2018-02-19T14:25:35.841Z,5.70
2018-02-19T14:28:37.161Z,5.70
2018-02-19T14:31:38.557Z,5.70
2018-02-19T14:34:39.876Z,5.70
2018-02-19T14:37:41.233Z,6.50
2018-02-19T14:40:43.279Z,6.40
2018-02-19T14:43:45.425Z,6.10
2018-02-19T14:46:46.913Z,6.00
2018-02-19T14:49:48.255Z,6.00
2018-02-19T14:52:49.614Z,5.80
2018-02-19T14:55:51.693Z,5.80
2018-02-19T14:58:53.017Z,5.70
2018-02-19T15:01:54.432Z,5.70
2018-02-19T15:04:55.815Z,5.70
2018-02-19T15:07:57.157Z,5.60
2018-02-19T15:10:58.494Z,5.60
2018-02-19T15:13:59.815Z,5.40
2018-02-19T15:17:01.170Z,5.30
2018-02-19T15:20:02.529Z,5.60
2018-02-19T15:23:03.869Z,5.50
2018-02-19T15:26:05.216Z,5.60
2018-02-19T15:29:06.579Z,5.70
2018-02-19T15:32:07.883Z,5.40
2018-02-19T15:35:09.997Z,5.50
2018-02-19T15:38:11.333Z,5.50
2018-02-19T15:41:12.618Z,5.60
2018-02-19T15:44:13.951Z,5.60
2018-02-19T15:47:15.307Z,5.40
2018-02-19T15:50:17.399Z,5.50
2018-02-19T15:53:19.517Z,5.40
2018-02-19T15:56:20.827Z,5.20
2018-02-19T15:59:22.183Z,5.40
2018-02-19T16:02:23.526Z,5.80
2018-02-19T16:05:24.899Z,6.20
2018-02-19T16:08:26.232Z,5.70
2018-02-19T16:11:27.556Z,5.40
2018-02-19T16:14:28.974Z,5.60
2018-02-19T16:17:30.282Z,5.50
2018-02-19T16:20:31.590Z,5.40
2018-02-19T16:23:32.927Z,5.30
2018-02-19T16:26:35.015Z,5.30
2018-02-19T16:29:36.379Z,5.30
2018-02-19T16:32:38.478Z,5.20
2018-02-19T16:35:40.574Z,5.20
2018-02-19T16:38:42.667Z,5.20
2018-02-19T16:41:43.989Z,5.10
2018-02-19T16:44:45.328Z,4.90
2018-02-19T16:47:47.388Z,5.00
2018-02-19T16:50:48.727Z,4.80
2018-02-19T16:53:50.033Z,4.70
2018-02-19T16:56:51.371Z,4.80
2018-02-19T16:59:53.441Z,4.60
2018-02-19T17:02:54.788Z,4.40
2018-02-19T17:05:56.130Z,4.50
2018-02-19T17:08:58.195Z,4.40
2018-02-19T17:11:59.529Z,4.50
2018-02-19T17:15:00.867Z,4.30
2018-02-19T17:18:02.176Z,4.40
2018-02-19T17:21:04.268Z,4.20
2018-02-19T17:24:06.327Z,4.30
2018-02-19T17:27:07.693Z,4.20
2018-02-19T17:30:09.058Z,4.30
2018-02-19T17:33:10.380Z,4.30
2018-02-19T17:36:11.775Z,4.30
2018-02-19T17:39:13.294Z,4.20
2018-02-19T17:42:14.611Z,4.20
2018-02-19T17:45:15.940Z,4.20
2018-02-19T17:48:17.251Z,4.20
2018-02-19T17:51:18.576Z,4.20
2018-02-19T17:54:19.899Z,4.00
2018-02-19T17:57:21.256Z,4.00
2018-02-19T18:00:23.339Z,4.10
2018-02-19T18:03:25.402Z,4.20
2018-02-19T18:06:26.757Z,4.10
2018-02-19T18:09:28.091Z,4.10
2018-02-19T18:12:29.434Z,4.10
2018-02-19T18:15:30.764Z,4.10
2018-02-19T18:18:32.812Z,4.20
2018-02-19T18:21:34.140Z,4.10
2018-02-19T18:24:36.280Z,4.10
2018-02-19T18:27:37.607Z,4.00
2018-02-19T18:30:38.988Z,4.10
2018-02-19T18:33:40.302Z,4.00
2018-02-19T18:36:41.866Z,4.00
2018-02-19T18:39:46.767Z,4.00
2018-02-19T18:42:48.108Z,4.10
2018-02-19T18:45:50.209Z,4.10
2018-02-19T18:48:52.298Z,4.00
2018-02-19T18:51:54.376Z,4.00
2018-02-19T18:54:55.681Z,3.70
2018-02-19T18:57:57.723Z,3.90
2018-02-19T19:00:59.053Z,3.90
2018-02-19T19:04:00.895Z,4.00
2018-02-19T19:07:02.240Z,4.30
2018-02-19T19:10:23.184Z,4.00
2018-02-19T19:13:24.765Z,3.90
2018-02-19T19:16:27.230Z,3.90
2018-02-19T19:19:28.544Z,3.80
2018-02-19T19:22:30.810Z,3.70
2018-02-19T19:25:32.116Z,3.70
2018-02-19T19:28:33.445Z,3.60
2018-02-19T19:31:35.118Z,3.50
2018-02-19T19:34:36.602Z,3.70
2018-02-19T19:37:37.908Z,3.30
2018-02-19T19:40:39.339Z,3.30
2018-02-19T19:43:40.773Z,3.50
2018-02-19T19:46:42.148Z,3.40
2018-02-19T19:49:43.594Z,3.40
2018-02-19T19:52:45.706Z,3.30
2018-02-19T19:58:55.622Z,3.20
2018-02-19T20:01:57.874Z,3.50
2018-02-19T20:04:59.163Z,3.20
2018-02-19T20:08:00.573Z,3.40
2018-02-19T20:11:02.031Z,3.50
2018-02-19T20:14:03.375Z,3.60
2018-02-19T20:17:04.692Z,3.50
2018-02-19T20:20:06.425Z,3.50
2018-02-19T20:23:07.999Z,3.50
2018-02-19T20:26:10.354Z,3.30
2018-02-19T20:29:11.727Z,3.10
2018-02-19T20:32:13.537Z,3.20
2018-02-19T20:35:15.529Z,3.20
2018-02-19T20:38:16.860Z,3.20
2018-02-19T20:41:18.984Z,3.30
2018-02-19T20:44:21.440Z,3.30
2018-02-19T20:47:23.411Z,3.20
2018-02-19T20:50:25.911Z,3.30
2018-02-19T20:53:27.207Z,3.40
2018-02-19T20:56:29.096Z,3.20
2018-02-19T20:59:30.575Z,3.30
2018-02-19T21:02:32.079Z,3.30
2018-02-19T21:05:34.983Z,3.30
2018-02-19T21:08:36.629Z,3.30
2018-02-19T21:11:38.288Z,3.40
2018-02-19T21:14:41.225Z,3.30
2018-02-19T21:17:43.668Z,3.30
2018-02-19T21:20:46.811Z,3.30
2018-02-19T21:23:48.433Z,3.30
2018-02-19T21:26:50.306Z,3.70
2018-02-19T21:29:52.209Z,3.60
2018-02-19T21:32:54.371Z,3.50
2018-02-19T21:35:55.734Z,3.30
2018-02-19T21:38:57.184Z,3.20
2018-02-19T21:41:58.928Z,3.10
2018-02-19T21:45:00.520Z,3.20
2018-02-19T21:48:01.921Z,3.00
2018-02-19T21:51:03.394Z,2.70
2018-02-19T21:54:05.572Z,2.90
2018-02-19T21:57:06.995Z,2.90
2018-02-19T22:00:09.167Z,2.90
2018-02-19T22:03:10.669Z,3.00
2018-02-19T22:06:12.060Z,2.70
2018-02-19T22:09:13.403Z,2.50
2018-02-19T22:12:14.839Z,2.80
2018-02-19T22:15:16.302Z,2.80
2018-02-19T22:18:17.622Z,2.80
2018-02-19T22:21:18.950Z,2.70
2018-02-19T22:24:21.029Z,2.60
2018-02-19T22:27:22.436Z,2.70
2018-02-19T22:30:24.326Z,2.70
2018-02-19T22:33:26.966Z,2.70
2018-02-19T22:36:30.228Z,2.70
2018-02-19T22:39:31.618Z,2.70
2018-02-19T22:42:32.955Z,2.40
2018-02-19T22:45:35.054Z,2.60
2018-02-19T22:48:37.641Z,2.50
2018-02-19T22:51:39.459Z,2.30
2018-02-19T22:54:41.180Z,2.30
2018-02-19T22:57:42.557Z,2.30
2018-02-19T23:00:43.919Z,2.40
2018-02-19T23:03:46.066Z,2.60
2018-02-19T23:06:47.403Z,2.50
2018-02-19T23:09:49.483Z,2.50
2018-02-19T23:12:51.542Z,2.40
2018-02-19T23:15:52.924Z,2.40
2018-02-19T23:18:54.278Z,2.20
2018-02-19T23:21:55.650Z,2.40
2018-02-19T23:24:56.951Z,2.30
2018-02-19T23:27:58.323Z,2.40
2018-02-19T23:30:59.623Z,2.30
2018-02-19T23:34:01.015Z,2.30
2018-02-19T23:37:02.375Z,2.20
2018-02-19T23:40:03.758Z,2.10
2018-02-19T23:43:05.152Z,2.40
2018-02-19T23:46:06.515Z,2.10
2018-02-19T23:49:07.861Z,2.10
2018-02-19T23:52:09.989Z,2.20
2018-02-19T23:55:11.338Z,2.30
2018-02-19T23:58:13.482Z,2.30
